Weather at RAF Ballykelly Air Base (abandoned) [CLOSED]

Public forecast

Using degrees Celsius for public forecast. Weather courtesy of forecast.io.

Closest aviation weather report (METAR) to RAF Ballykelly Air Base (abandoned)

Report is more than 6 hours old.

Closest report is City of Derry Airport, 5.0 nm (9.2 km) WSW.

2022/11/14 15:20 (retrieved 2 years ago)

EGAE 141520Z 14009KT 9999 FEW020 12/09 Q0999

Closest aviation forecast (TAF) to RAF Ballykelly Air Base (abandoned)

Forecast is more than 12 hours old.

Closest forecast is Belfast International Airport, 36.8 nm (68.2 km) SE.

2023/02/22 18:00 (retrieved 1 year ago)

TAF EGAA 221654Z 2218/2318 34015G25KT 9999 SCT025 PROB30 TEMPO 2218/2220 7000 SHRA BECMG 2219/2222 35008KT BECMG 2313/2316 29010KT